sensor_id;sensor_type;location;lat;lon;timestamp;P1;durP1;ratioP1;P2;durP2;ratioP2
17340;SDS011;8788;49.930;8.660;2023-05-10T00:00:47;0.20;;;0.20;;
17340;SDS011;8788;49.930;8.660;2023-05-10T00:03:14;0.30;;;0.30;;
17340;SDS011;8788;49.930;8.660;2023-05-10T00:05:41;0.20;;;0.20;;
17340;SDS011;8788;49.930;8.660;2023-05-10T00:08:09;0.20;;;0.20;;
17340;SDS011;8788;49.930;8.660;2023-05-10T00:10:36;0.52;;;0.40;;
17340;SDS011;8788;49.930;8.660;2023-05-10T00:13:04;0.13;;;0.13;;
17340;SDS011;8788;49.930;8.660;2023-05-10T00:15:31;1.48;;;0.47;;
17340;SDS011;8788;49.930;8.660;2023-05-10T00:17:58;0.22;;;0.20;;
17340;SDS011;8788;49.930;8.660;2023-05-10T00:20:25;1.35;;;0.40;;
17340;SDS011;8788;49.930;8.660;2023-05-10T00:22:52;0.88;;;0.38;;
17340;SDS011;8788;49.930;8.660;2023-05-10T00:25:20;0.40;;;0.40;;
17340;SDS011;8788;49.930;8.660;2023-05-10T00:27:47;0.75;;;0.32;;
17340;SDS011;8788;49.930;8.660;2023-05-10T00:30:15;1.00;;;0.52;;
17340;SDS011;8788;49.930;8.660;2023-05-10T00:32:44;1.50;;;0.43;;
17340;SDS011;8788;49.930;8.660;2023-05-10T00:35:11;1.48;;;0.30;;
17340;SDS011;8788;49.930;8.660;2023-05-10T00:37:38;3.42;;;0.30;;
17340;SDS011;8788;49.930;8.660;2023-05-10T00:40:05;0.17;;;0.17;;
17340;SDS011;8788;49.930;8.660;2023-05-10T00:42:34;0.28;;;0.28;;
17340;SDS011;8788;49.930;8.660;2023-05-10T00:45:02;4.22;;;0.40;;
17340;SDS011;8788;49.930;8.660;2023-05-10T00:47:29;0.20;;;0.20;;
17340;SDS011;8788;49.930;8.660;2023-05-10T00:49:56;0.20;;;0.20;;
17340;SDS011;8788;49.930;8.660;2023-05-10T00:52:24;0.65;;;0.20;;
17340;SDS011;8788;49.930;8.660;2023-05-10T00:54:52;0.22;;;0.22;;
17340;SDS011;8788;49.930;8.660;2023-05-10T00:57:19;0.30;;;0.30;;
17340;SDS011;8788;49.930;8.660;2023-05-10T00:59:48;0.38;;;0.20;;
17340;SDS011;8788;49.930;8.660;2023-05-10T01:02:15;0.47;;;0.30;;
17340;SDS011;8788;49.930;8.660;2023-05-10T01:04:42;0.30;;;0.30;;
17340;SDS011;8788;49.930;8.660;2023-05-10T01:07:09;0.30;;;0.30;;
17340;SDS011;8788;49.930;8.660;2023-05-10T01:09:36;0.30;;;0.30;;
17340;SDS011;8788;49.930;8.660;2023-05-10T01:12:04;2.05;;;0.47;;
17340;SDS011;8788;49.930;8.660;2023-05-10T01:14:32;0.20;;;0.20;;
17340;SDS011;8788;49.930;8.660;2023-05-10T01:17:02;0.40;;;0.40;;
17340;SDS011;8788;49.930;8.660;2023-05-10T01:19:31;0.60;;;0.47;;
17340;SDS011;8788;49.930;8.660;2023-05-10T01:22:04;0.63;;;0.50;;
17340;SDS011;8788;49.930;8.660;2023-05-10T01:27:47;0.57;;;0.38;;
17340;SDS011;8788;49.930;8.660;2023-05-10T01:33:31;1.23;;;0.30;;
17340;SDS011;8788;49.930;8.660;2023-05-10T01:36:03;2.53;;;0.50;;
17340;SDS011;8788;49.930;8.660;2023-05-10T01:38:38;0.40;;;0.40;;
17340;SDS011;8788;49.930;8.660;2023-05-10T01:41:12;0.30;;;0.20;;
17340;SDS011;8788;49.930;8.660;2023-05-10T01:43:46;0.60;;;0.35;;
17340;SDS011;8788;49.930;8.660;2023-05-10T01:46:21;0.45;;;0.45;;
17340;SDS011;8788;49.930;8.660;2023-05-10T01:48:55;1.27;;;0.52;;
17340;SDS011;8788;49.930;8.660;2023-05-10T01:51:27;0.40;;;0.40;;
17340;SDS011;8788;49.930;8.660;2023-05-10T01:54:00;1.00;;;0.90;;
17340;SDS011;8788;49.930;8.660;2023-05-10T01:56:29;1.10;;;0.52;;
17340;SDS011;8788;49.930;8.660;2023-05-10T01:58:59;1.58;;;0.50;;
17340;SDS011;8788;49.930;8.660;2023-05-10T02:01:32;0.60;;;0.47;;
17340;SDS011;8788;49.930;8.660;2023-05-10T02:04:04;0.43;;;0.43;;
17340;SDS011;8788;49.930;8.660;2023-05-10T02:06:37;1.15;;;0.43;;
17340;SDS011;8788;49.930;8.660;2023-05-10T02:09:10;0.40;;;0.40;;
17340;SDS011;8788;49.930;8.660;2023-05-10T02:11:47;0.60;;;0.60;;
17340;SDS011;8788;49.930;8.660;2023-05-10T02:14:15;0.77;;;0.70;;
17340;SDS011;8788;49.930;8.660;2023-05-10T02:16:44;0.82;;;0.60;;
17340;SDS011;8788;49.930;8.660;2023-05-10T02:19:14;0.55;;;0.55;;
17340;SDS011;8788;49.930;8.660;2023-05-10T02:21:43;2.30;;;0.60;;
17340;SDS011;8788;49.930;8.660;2023-05-10T02:24:11;0.60;;;0.60;;
17340;SDS011;8788;49.930;8.660;2023-05-10T02:26:42;1.23;;;0.60;;
17340;SDS011;8788;49.930;8.660;2023-05-10T02:29:10;0.75;;;0.70;;
17340;SDS011;8788;49.930;8.660;2023-05-10T02:31:38;0.95;;;0.65;;
17340;SDS011;8788;49.930;8.660;2023-05-10T02:34:08;0.80;;;0.80;;
17340;SDS011;8788;49.930;8.660;2023-05-10T02:36:38;0.60;;;0.60;;
17340;SDS011;8788;49.930;8.660;2023-05-10T02:39:08;2.33;;;0.93;;
17340;SDS011;8788;49.930;8.660;2023-05-10T02:41:37;0.70;;;0.70;;
17340;SDS011;8788;49.930;8.660;2023-05-10T02:44:07;1.25;;;1.00;;
17340;SDS011;8788;49.930;8.660;2023-05-10T02:46:35;1.10;;;1.02;;
17340;SDS011;8788;49.930;8.660;2023-05-10T02:49:03;1.10;;;1.10;;
17340;SDS011;8788;49.930;8.660;2023-05-10T02:51:31;2.45;;;1.10;;
17340;SDS011;8788;49.930;8.660;2023-05-10T02:54:04;2.28;;;1.10;;
17340;SDS011;8788;49.930;8.660;2023-05-10T02:56:35;1.13;;;1.00;;
17340;SDS011;8788;49.930;8.660;2023-05-10T02:59:04;3.72;;;0.90;;
17340;SDS011;8788;49.930;8.660;2023-05-10T03:01:31;5.57;;;1.08;;
17340;SDS011;8788;49.930;8.660;2023-05-10T03:03:59;0.90;;;0.90;;
17340;SDS011;8788;49.930;8.660;2023-05-10T03:06:26;0.90;;;0.70;;
17340;SDS011;8788;49.930;8.660;2023-05-10T03:08:53;1.88;;;0.73;;
17340;SDS011;8788;49.930;8.660;2023-05-10T03:11:31;1.52;;;1.17;;
17340;SDS011;8788;49.930;8.660;2023-05-10T03:14:13;1.40;;;1.23;;
17340;SDS011;8788;49.930;8.660;2023-05-10T03:16:52;0.95;;;0.95;;
17340;SDS011;8788;49.930;8.660;2023-05-10T03:19:26;2.55;;;1.02;;
17340;SDS011;8788;49.930;8.660;2023-05-10T03:21:58;1.70;;;0.90;;
17340;SDS011;8788;49.930;8.660;2023-05-10T03:24:32;3.47;;;1.10;;
17340;SDS011;8788;49.930;8.660;2023-05-10T03:27:03;2.20;;;0.95;;
17340;SDS011;8788;49.930;8.660;2023-05-10T03:29:31;1.38;;;1.15;;
17340;SDS011;8788;49.930;8.660;2023-05-10T03:31:59;1.30;;;1.20;;
17340;SDS011;8788;49.930;8.660;2023-05-10T03:34:29;1.40;;;1.30;;
17340;SDS011;8788;49.930;8.660;2023-05-10T03:36:57;2.50;;;1.50;;
17340;SDS011;8788;49.930;8.660;2023-05-10T03:39:26;2.30;;;1.73;;
17340;SDS011;8788;49.930;8.660;2023-05-10T03:41:56;1.92;;;1.70;;
17340;SDS011;8788;49.930;8.660;2023-05-10T03:44:25;1.88;;;1.77;;
17340;SDS011;8788;49.930;8.660;2023-05-10T03:46:52;2.70;;;1.88;;
17340;SDS011;8788;49.930;8.660;2023-05-10T03:49:19;1.75;;;1.50;;
17340;SDS011;8788;49.930;8.660;2023-05-10T03:51:47;3.03;;;1.80;;
17340;SDS011;8788;49.930;8.660;2023-05-10T03:54:14;3.60;;;1.45;;
17340;SDS011;8788;49.930;8.660;2023-05-10T03:56:41;1.88;;;1.77;;
17340;SDS011;8788;49.930;8.660;2023-05-10T03:59:09;1.83;;;1.73;;
17340;SDS011;8788;49.930;8.660;2023-05-10T04:01:37;2.38;;;1.80;;
17340;SDS011;8788;49.930;8.660;2023-05-10T04:04:04;4.15;;;2.17;;
17340;SDS011;8788;49.930;8.660;2023-05-10T04:06:31;1.75;;;1.65;;
17340;SDS011;8788;49.930;8.660;2023-05-10T04:08:58;2.15;;;1.95;;
17340;SDS011;8788;49.930;8.660;2023-05-10T04:11:29;4.13;;;1.77;;
17340;SDS011;8788;49.930;8.660;2023-05-10T04:13:56;2.33;;;2.13;;
17340;SDS011;8788;49.930;8.660;2023-05-10T04:16:23;2.35;;;2.15;;
17340;SDS011;8788;49.930;8.660;2023-05-10T04:18:52;2.33;;;2.10;;
17340;SDS011;8788;49.930;8.660;2023-05-10T04:21:19;4.00;;;2.00;;
17340;SDS011;8788;49.930;8.660;2023-05-10T04:23:46;2.83;;;1.98;;
17340;SDS011;8788;49.930;8.660;2023-05-10T04:26:13;5.13;;;2.20;;
17340;SDS011;8788;49.930;8.660;2023-05-10T04:28:40;2.53;;;2.33;;
17340;SDS011;8788;49.930;8.660;2023-05-10T04:31:08;7.55;;;1.88;;
17340;SDS011;8788;49.930;8.660;2023-05-10T04:33:36;2.10;;;1.90;;
17340;SDS011;8788;49.930;8.660;2023-05-10T04:36:05;2.78;;;2.00;;
17340;SDS011;8788;49.930;8.660;2023-05-10T04:38:32;2.63;;;1.95;;
17340;SDS011;8788;49.930;8.660;2023-05-10T04:41:06;2.75;;;2.00;;
17340;SDS011;8788;49.930;8.660;2023-05-10T04:43:33;4.57;;;2.20;;
17340;SDS011;8788;49.930;8.660;2023-05-10T04:46:01;2.20;;;2.00;;
17340;SDS011;8788;49.930;8.660;2023-05-10T04:48:28;2.58;;;1.85;;
17340;SDS011;8788;49.930;8.660;2023-05-10T04:50:55;3.45;;;1.92;;
17340;SDS011;8788;49.930;8.660;2023-05-10T04:53:24;3.28;;;1.83;;
17340;SDS011;8788;49.930;8.660;2023-05-10T04:55:51;4.88;;;2.10;;
17340;SDS011;8788;49.930;8.660;2023-05-10T04:58:18;2.28;;;2.08;;
17340;SDS011;8788;49.930;8.660;2023-05-10T05:00:45;2.45;;;2.22;;
17340;SDS011;8788;49.930;8.660;2023-05-10T05:03:12;3.17;;;1.95;;
17340;SDS011;8788;49.930;8.660;2023-05-10T05:05:40;2.80;;;1.83;;
17340;SDS011;8788;49.930;8.660;2023-05-10T05:08:07;3.40;;;2.30;;
17340;SDS011;8788;49.930;8.660;2023-05-10T05:10:35;4.13;;;2.47;;
17340;SDS011;8788;49.930;8.660;2023-05-10T05:13:02;3.40;;;2.60;;
17340;SDS011;8788;49.930;8.660;2023-05-10T05:15:29;3.30;;;2.58;;
17340;SDS011;8788;49.930;8.660;2023-05-10T05:17:56;5.70;;;2.20;;
17340;SDS011;8788;49.930;8.660;2023-05-10T05:20:23;2.33;;;2.13;;
17340;SDS011;8788;49.930;8.660;2023-05-10T05:22:50;2.45;;;2.25;;
17340;SDS011;8788;49.930;8.660;2023-05-10T05:25:17;2.28;;;2.08;;
17340;SDS011;8788;49.930;8.660;2023-05-10T05:27:46;3.08;;;2.15;;
17340;SDS011;8788;49.930;8.660;2023-05-10T05:30:13;4.28;;;2.08;;
17340;SDS011;8788;49.930;8.660;2023-05-10T05:32:40;2.35;;;2.00;;
17340;SDS011;8788;49.930;8.660;2023-05-10T05:35:07;6.00;;;2.20;;
17340;SDS011;8788;49.930;8.660;2023-05-10T05:37:34;2.13;;;1.92;;
17340;SDS011;8788;49.930;8.660;2023-05-10T05:40:02;1.88;;;1.77;;
17340;SDS011;8788;49.930;8.660;2023-05-10T05:42:30;2.58;;;1.85;;
17340;SDS011;8788;49.930;8.660;2023-05-10T05:44:59;2.97;;;2.22;;
17340;SDS011;8788;49.930;8.660;2023-05-10T05:47:26;6.47;;;2.15;;
17340;SDS011;8788;49.930;8.660;2023-05-10T05:49:53;3.75;;;2.00;;
17340;SDS011;8788;49.930;8.660;2023-05-10T05:52:20;2.47;;;2.28;;
17340;SDS011;8788;49.930;8.660;2023-05-10T05:54:47;3.13;;;2.10;;
17340;SDS011;8788;49.930;8.660;2023-05-10T05:57:14;3.17;;;1.90;;
17340;SDS011;8788;49.930;8.660;2023-05-10T05:59:41;3.42;;;1.98;;
17340;SDS011;8788;49.930;8.660;2023-05-10T06:02:10;2.35;;;1.92;;
17340;SDS011;8788;49.930;8.660;2023-05-10T06:04:37;2.28;;;1.85;;
17340;SDS011;8788;49.930;8.660;2023-05-10T06:07:04;2.17;;;1.77;;
17340;SDS011;8788;49.930;8.660;2023-05-10T06:09:31;3.58;;;1.65;;
17340;SDS011;8788;49.930;8.660;2023-05-10T06:11:58;3.95;;;2.15;;
17340;SDS011;8788;49.930;8.660;2023-05-10T06:14:26;2.85;;;2.00;;
17340;SDS011;8788;49.930;8.660;2023-05-10T06:16:53;2.63;;;2.00;;
17340;SDS011;8788;49.930;8.660;2023-05-10T06:19:22;3.65;;;1.90;;
17340;SDS011;8788;49.930;8.660;2023-05-10T06:21:49;3.20;;;1.80;;
17340;SDS011;8788;49.930;8.660;2023-05-10T06:24:16;3.33;;;2.45;;
17340;SDS011;8788;49.930;8.660;2023-05-10T06:26:43;4.55;;;2.20;;
17340;SDS011;8788;49.930;8.660;2023-05-10T06:29:10;1.75;;;1.65;;
17340;SDS011;8788;49.930;8.660;2023-05-10T06:31:37;2.10;;;1.90;;
17340;SDS011;8788;49.930;8.660;2023-05-10T06:34:04;3.30;;;1.83;;
17340;SDS011;8788;49.930;8.660;2023-05-10T06:36:34;2.83;;;1.95;;
17340;SDS011;8788;49.930;8.660;2023-05-10T06:39:01;4.28;;;2.40;;
17340;SDS011;8788;49.930;8.660;2023-05-10T06:41:28;3.13;;;2.13;;
17340;SDS011;8788;49.930;8.660;2023-05-10T06:43:56;1.70;;;1.60;;
17340;SDS011;8788;49.930;8.660;2023-05-10T06:46:23;2.42;;;1.90;;
17340;SDS011;8788;49.930;8.660;2023-05-10T06:48:50;2.08;;;1.90;;
17340;SDS011;8788;49.930;8.660;2023-05-10T06:51:17;3.38;;;2.17;;
17340;SDS011;8788;49.930;8.660;2023-05-10T06:53:45;4.18;;;2.22;;
17340;SDS011;8788;49.930;8.660;2023-05-10T06:56:12;2.60;;;2.33;;
17340;SDS011;8788;49.930;8.660;2023-05-10T06:58:39;4.80;;;2.50;;
17340;SDS011;8788;49.930;8.660;2023-05-10T07:01:06;4.38;;;3.03;;
17340;SDS011;8788;49.930;8.660;2023-05-10T07:03:33;3.30;;;2.25;;
17340;SDS011;8788;49.930;8.660;2023-05-10T07:06:01;3.13;;;2.08;;
17340;SDS011;8788;49.930;8.660;2023-05-10T07:08:29;2.97;;;2.60;;
17340;SDS011;8788;49.930;8.660;2023-05-10T07:11:01;3.03;;;2.78;;
17340;SDS011;8788;49.930;8.660;2023-05-10T07:13:29;3.38;;;2.72;;
17340;SDS011;8788;49.930;8.660;2023-05-10T07:15:57;3.17;;;2.88;;
17340;SDS011;8788;49.930;8.660;2023-05-10T07:18:24;3.92;;;2.67;;
17340;SDS011;8788;49.930;8.660;2023-05-10T07:20:52;3.20;;;2.90;;
17340;SDS011;8788;49.930;8.660;2023-05-10T07:23:19;3.00;;;2.45;;
17340;SDS011;8788;49.930;8.660;2023-05-10T07:25:46;4.88;;;3.33;;
17340;SDS011;8788;49.930;8.660;2023-05-10T07:28:15;3.33;;;3.03;;
17340;SDS011;8788;49.930;8.660;2023-05-10T07:30:42;3.17;;;2.97;;
17340;SDS011;8788;49.930;8.660;2023-05-10T07:33:09;4.22;;;2.97;;
17340;SDS011;8788;49.930;8.660;2023-05-10T07:35:37;3.40;;;3.10;;
17340;SDS011;8788;49.930;8.660;2023-05-10T07:38:04;4.07;;;3.13;;
17340;SDS011;8788;49.930;8.660;2023-05-10T07:40:31;3.75;;;2.90;;
17340;SDS011;8788;49.930;8.660;2023-05-10T07:42:58;3.35;;;3.03;;
17340;SDS011;8788;49.930;8.660;2023-05-10T07:45:28;4.70;;;2.95;;
17340;SDS011;8788;49.930;8.660;2023-05-10T07:47:55;3.53;;;3.22;;
17340;SDS011;8788;49.930;8.660;2023-05-10T07:50:22;3.60;;;2.95;;
17340;SDS011;8788;49.930;8.660;2023-05-10T07:52:49;4.85;;;3.00;;
17340;SDS011;8788;49.930;8.660;2023-05-10T07:55:17;4.20;;;3.40;;
17340;SDS011;8788;49.930;8.660;2023-05-10T07:57:45;6.00;;;3.33;;
17340;SDS011;8788;49.930;8.660;2023-05-10T08:00:12;2.92;;;2.72;;
17340;SDS011;8788;49.930;8.660;2023-05-10T08:02:44;5.95;;;2.83;;
17340;SDS011;8788;49.930;8.660;2023-05-10T08:05:11;3.80;;;2.78;;
17340;SDS011;8788;49.930;8.660;2023-05-10T08:07:38;6.40;;;2.83;;
17340;SDS011;8788;49.930;8.660;2023-05-10T08:10:06;2.60;;;2.40;;
17340;SDS011;8788;49.930;8.660;2023-05-10T08:12:34;4.80;;;2.60;;
17340;SDS011;8788;49.930;8.660;2023-05-10T08:15:02;2.92;;;2.53;;
17340;SDS011;8788;49.930;8.660;2023-05-10T08:17:29;4.43;;;2.50;;
17340;SDS011;8788;49.930;8.660;2023-05-10T08:19:58;3.20;;;2.63;;
17340;SDS011;8788;49.930;8.660;2023-05-10T08:22:25;3.60;;;2.20;;
17340;SDS011;8788;49.930;8.660;2023-05-10T08:24:52;2.47;;;2.15;;
17340;SDS011;8788;49.930;8.660;2023-05-10T08:27:19;2.53;;;1.80;;
17340;SDS011;8788;49.930;8.660;2023-05-10T08:29:47;4.47;;;1.70;;
17340;SDS011;8788;49.930;8.660;2023-05-10T08:32:14;5.55;;;2.17;;
17340;SDS011;8788;49.930;8.660;2023-05-10T08:34:41;4.85;;;2.30;;
17340;SDS011;8788;49.930;8.660;2023-05-10T08:37:09;5.57;;;2.15;;
17340;SDS011;8788;49.930;8.660;2023-05-10T08:39:38;3.22;;;2.30;;
17340;SDS011;8788;49.930;8.660;2023-05-10T08:42:05;2.65;;;1.90;;
17340;SDS011;8788;49.930;8.660;2023-05-10T08:44:34;2.25;;;2.15;;
17340;SDS011;8788;49.930;8.660;2023-05-10T08:47:03;3.75;;;1.92;;
17340;SDS011;8788;49.930;8.660;2023-05-10T08:49:32;2.63;;;2.15;;
17340;SDS011;8788;49.930;8.660;2023-05-10T08:52:02;1.92;;;1.77;;
17340;SDS011;8788;49.930;8.660;2023-05-10T08:54:32;2.17;;;1.98;;
17340;SDS011;8788;49.930;8.660;2023-05-10T08:57:00;2.80;;;1.98;;
17340;SDS011;8788;49.930;8.660;2023-05-10T08:59:27;2.50;;;1.60;;
17340;SDS011;8788;49.930;8.660;2023-05-10T09:01:55;2.45;;;1.90;;
17340;SDS011;8788;49.930;8.660;2023-05-10T09:04:24;2.75;;;2.20;;
17340;SDS011;8788;49.930;8.660;2023-05-10T09:06:51;2.00;;;1.90;;
17340;SDS011;8788;49.930;8.660;2023-05-10T09:09:19;1.88;;;1.60;;
17340;SDS011;8788;49.930;8.660;2023-05-10T09:11:49;1.83;;;1.70;;
17340;SDS011;8788;49.930;8.660;2023-05-10T09:14:16;2.88;;;2.17;;
17340;SDS011;8788;49.930;8.660;2023-05-10T09:16:44;5.28;;;2.05;;
17340;SDS011;8788;49.930;8.660;2023-05-10T09:19:11;7.03;;;2.08;;
17340;SDS011;8788;49.930;8.660;2023-05-10T09:21:38;2.42;;;1.75;;
17340;SDS011;8788;49.930;8.660;2023-05-10T09:24:06;1.98;;;1.80;;
17340;SDS011;8788;49.930;8.660;2023-05-10T09:26:34;2.15;;;1.20;;
17340;SDS011;8788;49.930;8.660;2023-05-10T09:29:03;1.60;;;1.15;;
17340;SDS011;8788;49.930;8.660;2023-05-10T09:31:44;2.30;;;0.85;;
17340;SDS011;8788;49.930;8.660;2023-05-10T09:34:15;2.35;;;1.10;;
17340;SDS011;8788;49.930;8.660;2023-05-10T09:36:53;1.10;;;1.00;;
17340;SDS011;8788;49.930;8.660;2023-05-10T09:39:23;1.10;;;1.00;;
17340;SDS011;8788;49.930;8.660;2023-05-10T09:41:58;1.77;;;1.45;;
17340;SDS011;8788;49.930;8.660;2023-05-10T09:44:27;1.00;;;1.00;;
17340;SDS011;8788;49.930;8.660;2023-05-10T09:46:54;1.88;;;1.08;;
17340;SDS011;8788;49.930;8.660;2023-05-10T09:49:21;1.80;;;1.38;;
17340;SDS011;8788;49.930;8.660;2023-05-10T09:51:57;1.98;;;1.10;;
17340;SDS011;8788;49.930;8.660;2023-05-10T09:54:27;2.80;;;0.90;;
17340;SDS011;8788;49.930;8.660;2023-05-10T09:56:54;1.42;;;1.20;;
17340;SDS011;8788;49.930;8.660;2023-05-10T09:59:21;0.82;;;0.82;;
17340;SDS011;8788;49.930;8.660;2023-05-10T10:01:53;1.08;;;0.80;;
17340;SDS011;8788;49.930;8.660;2023-05-10T10:04:22;1.83;;;0.82;;
17340;SDS011;8788;49.930;8.660;2023-05-10T10:06:59;1.05;;;0.70;;
17340;SDS011;8788;49.930;8.660;2023-05-10T10:09:28;1.08;;;0.77;;
17340;SDS011;8788;49.930;8.660;2023-05-10T10:11:55;0.70;;;0.70;;
17340;SDS011;8788;49.930;8.660;2023-05-10T10:14:22;1.50;;;0.60;;
17340;SDS011;8788;49.930;8.660;2023-05-10T10:16:50;1.60;;;0.95;;
17340;SDS011;8788;49.930;8.660;2023-05-10T10:19:19;1.60;;;1.23;;
17340;SDS011;8788;49.930;8.660;2023-05-10T10:21:47;0.88;;;0.60;;
17340;SDS011;8788;49.930;8.660;2023-05-10T10:24:14;1.77;;;0.68;;
17340;SDS011;8788;49.930;8.660;2023-05-10T10:26:41;3.50;;;0.73;;
17340;SDS011;8788;49.930;8.660;2023-05-10T10:29:12;1.75;;;0.73;;
17340;SDS011;8788;49.930;8.660;2023-05-10T10:31:49;2.45;;;0.77;;
17340;SDS011;8788;49.930;8.660;2023-05-10T10:34:38;0.90;;;0.90;;
17340;SDS011;8788;49.930;8.660;2023-05-10T10:37:06;0.90;;;0.73;;
17340;SDS011;8788;49.930;8.660;2023-05-10T10:39:33;2.28;;;1.00;;
17340;SDS011;8788;49.930;8.660;2023-05-10T10:42:01;1.13;;;0.90;;
17340;SDS011;8788;49.930;8.660;2023-05-10T10:44:34;2.40;;;0.80;;
17340;SDS011;8788;49.930;8.660;2023-05-10T10:47:04;3.15;;;1.10;;
17340;SDS011;8788;49.930;8.660;2023-05-10T10:49:43;1.15;;;0.80;;
17340;SDS011;8788;49.930;8.660;2023-05-10T10:52:24;1.45;;;0.70;;
17340;SDS011;8788;49.930;8.660;2023-05-10T10:54:57;2.28;;;1.30;;
17340;SDS011;8788;49.930;8.660;2023-05-10T10:57:26;2.78;;;0.80;;
17340;SDS011;8788;49.930;8.660;2023-05-10T11:02:49;0.65;;;0.52;;
17340;SDS011;8788;49.930;8.660;2023-05-10T11:08:09;0.80;;;0.68;;
17340;SDS011;8788;49.930;8.660;2023-05-10T11:10:37;0.68;;;0.50;;
17340;SDS011;8788;49.930;8.660;2023-05-10T11:13:06;0.82;;;0.82;;
17340;SDS011;8788;49.930;8.660;2023-05-10T11:15:35;1.70;;;1.10;;
17340;SDS011;8788;49.930;8.660;2023-05-10T11:20:51;1.42;;;0.70;;
17340;SDS011;8788;49.930;8.660;2023-05-10T11:23:19;0.60;;;0.60;;
17340;SDS011;8788;49.930;8.660;2023-05-10T11:25:47;1.75;;;0.80;;
17340;SDS011;8788;49.930;8.660;2023-05-10T11:28:16;3.22;;;0.70;;
17340;SDS011;8788;49.930;8.660;2023-05-10T11:30:45;1.27;;;0.45;;
17340;SDS011;8788;49.930;8.660;2023-05-10T11:33:15;0.77;;;0.77;;
17340;SDS011;8788;49.930;8.660;2023-05-10T11:35:44;1.48;;;0.80;;
17340;SDS011;8788;49.930;8.660;2023-05-10T11:38:13;2.58;;;1.08;;
17340;SDS011;8788;49.930;8.660;2023-05-10T11:40:41;3.15;;;0.90;;
17340;SDS011;8788;49.930;8.660;2023-05-10T11:43:08;1.17;;;0.68;;
17340;SDS011;8788;49.930;8.660;2023-05-10T11:45:36;2.20;;;0.60;;
17340;SDS011;8788;49.930;8.660;2023-05-10T11:48:04;0.57;;;0.57;;
17340;SDS011;8788;49.930;8.660;2023-05-10T11:50:31;0.82;;;0.63;;
17340;SDS011;8788;49.930;8.660;2023-05-10T11:52:58;0.82;;;0.70;;
17340;SDS011;8788;49.930;8.660;2023-05-10T11:55:27;0.40;;;0.40;;
17340;SDS011;8788;49.930;8.660;2023-05-10T11:57:55;0.60;;;0.47;;
17340;SDS011;8788;49.930;8.660;2023-05-10T12:00:27;0.68;;;0.68;;
17340;SDS011;8788;49.930;8.660;2023-05-10T12:02:55;3.42;;;0.98;;
17340;SDS011;8788;49.930;8.660;2023-05-10T12:05:22;0.55;;;0.50;;
17340;SDS011;8788;49.930;8.660;2023-05-10T12:07:50;1.00;;;0.63;;
17340;SDS011;8788;49.930;8.660;2023-05-10T12:10:17;0.43;;;0.40;;
17340;SDS011;8788;49.930;8.660;2023-05-10T12:12:53;0.52;;;0.47;;
17340;SDS011;8788;49.930;8.660;2023-05-10T12:15:21;0.30;;;0.30;;
17340;SDS011;8788;49.930;8.660;2023-05-10T12:17:48;0.38;;;0.38;;
17340;SDS011;8788;49.930;8.660;2023-05-10T12:20:17;0.30;;;0.30;;
17340;SDS011;8788;49.930;8.660;2023-05-10T12:22:46;0.40;;;0.32;;
17340;SDS011;8788;49.930;8.660;2023-05-10T12:25:14;0.75;;;0.30;;
17340;SDS011;8788;49.930;8.660;2023-05-10T12:27:48;1.25;;;0.38;;
17340;SDS011;8788;49.930;8.660;2023-05-10T12:30:20;2.80;;;0.60;;
17340;SDS011;8788;49.930;8.660;2023-05-10T12:32:48;3.40;;;0.65;;
17340;SDS011;8788;49.930;8.660;2023-05-10T12:35:16;0.85;;;0.50;;
17340;SDS011;8788;49.930;8.660;2023-05-10T12:37:46;1.85;;;0.40;;
17340;SDS011;8788;49.930;8.660;2023-05-10T12:40:13;1.08;;;0.52;;
17340;SDS011;8788;49.930;8.660;2023-05-10T12:42:40;0.77;;;0.55;;
17340;SDS011;8788;49.930;8.660;2023-05-10T12:45:09;2.80;;;0.50;;
17340;SDS011;8788;49.930;8.660;2023-05-10T12:47:37;0.57;;;0.50;;
17340;SDS011;8788;49.930;8.660;2023-05-10T12:50:04;1.33;;;0.60;;
17340;SDS011;8788;49.930;8.660;2023-05-10T12:52:32;2.17;;;0.68;;
17340;SDS011;8788;49.930;8.660;2023-05-10T12:54:59;1.50;;;0.47;;
17340;SDS011;8788;49.930;8.660;2023-05-10T12:57:28;0.30;;;0.30;;
17340;SDS011;8788;49.930;8.660;2023-05-10T12:59:55;2.20;;;0.40;;
17340;SDS011;8788;49.930;8.660;2023-05-10T13:02:24;0.43;;;0.40;;
17340;SDS011;8788;49.930;8.660;2023-05-10T13:04:51;1.90;;;0.30;;
17340;SDS011;8788;49.930;8.660;2023-05-10T13:07:19;1.23;;;0.50;;
17340;SDS011;8788;49.930;8.660;2023-05-10T13:09:46;0.98;;;0.32;;
17340;SDS011;8788;49.930;8.660;2023-05-10T13:12:13;2.92;;;0.45;;
17340;SDS011;8788;49.930;8.660;2023-05-10T13:14:40;1.00;;;0.55;;
17340;SDS011;8788;49.930;8.660;2023-05-10T13:17:07;3.30;;;0.50;;
17340;SDS011;8788;49.930;8.660;2023-05-10T13:19:35;2.30;;;0.70;;
17340;SDS011;8788;49.930;8.660;2023-05-10T13:22:02;0.60;;;0.50;;
17340;SDS011;8788;49.930;8.660;2023-05-10T13:24:29;0.95;;;0.60;;
17340;SDS011;8788;49.930;8.660;2023-05-10T13:26:56;1.55;;;0.65;;
17340;SDS011;8788;49.930;8.660;2023-05-10T13:29:24;1.65;;;0.57;;
17340;SDS011;8788;49.930;8.660;2023-05-10T13:31:51;2.13;;;0.70;;
17340;SDS011;8788;49.930;8.660;2023-05-10T13:34:18;1.17;;;0.70;;
17340;SDS011;8788;49.930;8.660;2023-05-10T13:36:48;0.80;;;0.52;;
17340;SDS011;8788;49.930;8.660;2023-05-10T13:39:15;1.65;;;0.50;;
17340;SDS011;8788;49.930;8.660;2023-05-10T13:41:42;0.60;;;0.60;;
17340;SDS011;8788;49.930;8.660;2023-05-10T13:44:11;1.15;;;0.50;;
17340;SDS011;8788;49.930;8.660;2023-05-10T13:46:38;2.15;;;0.80;;
17340;SDS011;8788;49.930;8.660;2023-05-10T13:49:05;2.75;;;0.60;;
17340;SDS011;8788;49.930;8.660;2023-05-10T13:51:33;1.23;;;0.65;;
17340;SDS011;8788;49.930;8.660;2023-05-10T13:54:02;0.80;;;0.75;;
17340;SDS011;8788;49.930;8.660;2023-05-10T13:56:29;1.00;;;0.75;;
17340;SDS011;8788;49.930;8.660;2023-05-10T13:58:56;2.28;;;0.68;;
17340;SDS011;8788;49.930;8.660;2023-05-10T14:01:23;1.30;;;0.50;;
17340;SDS011;8788;49.930;8.660;2023-05-10T14:03:50;0.60;;;0.60;;
17340;SDS011;8788;49.930;8.660;2023-05-10T14:06:17;0.70;;;0.55;;
17340;SDS011;8788;49.930;8.660;2023-05-10T14:08:44;1.88;;;0.55;;
17340;SDS011;8788;49.930;8.660;2023-05-10T14:11:13;2.17;;;0.50;;
17340;SDS011;8788;49.930;8.660;2023-05-10T14:13:40;1.17;;;0.65;;
17340;SDS011;8788;49.930;8.660;2023-05-10T14:16:07;1.88;;;0.55;;
17340;SDS011;8788;49.930;8.660;2023-05-10T14:18:34;2.22;;;0.68;;
17340;SDS011;8788;49.930;8.660;2023-05-10T14:21:02;2.50;;;0.50;;
17340;SDS011;8788;49.930;8.660;2023-05-10T14:23:29;2.63;;;0.70;;
17340;SDS011;8788;49.930;8.660;2023-05-10T14:25:56;1.10;;;0.70;;
17340;SDS011;8788;49.930;8.660;2023-05-10T14:28:25;0.75;;;0.70;;
17340;SDS011;8788;49.930;8.660;2023-05-10T14:30:52;6.78;;;0.98;;
17340;SDS011;8788;49.930;8.660;2023-05-10T14:33:19;3.53;;;0.93;;
17340;SDS011;8788;49.930;8.660;2023-05-10T14:35:47;1.88;;;0.70;;
17340;SDS011;8788;49.930;8.660;2023-05-10T14:38:14;2.90;;;0.82;;
17340;SDS011;8788;49.930;8.660;2023-05-10T14:40:42;0.90;;;0.90;;
17340;SDS011;8788;49.930;8.660;2023-05-10T14:43:09;0.60;;;0.60;;
17340;SDS011;8788;49.930;8.660;2023-05-10T14:45:37;2.17;;;0.82;;
17340;SDS011;8788;49.930;8.660;2023-05-10T14:48:04;1.00;;;0.73;;
17340;SDS011;8788;49.930;8.660;2023-05-10T14:50:31;1.05;;;0.70;;
17340;SDS011;8788;49.930;8.660;2023-05-10T14:52:59;1.02;;;0.82;;
17340;SDS011;8788;49.930;8.660;2023-05-10T14:55:26;1.15;;;0.80;;
17340;SDS011;8788;49.930;8.660;2023-05-10T14:57:53;1.70;;;0.70;;
17340;SDS011;8788;49.930;8.660;2023-05-10T15:00:20;2.70;;;0.75;;
17340;SDS011;8788;49.930;8.660;2023-05-10T15:02:49;3.53;;;0.90;;
17340;SDS011;8788;49.930;8.660;2023-05-10T15:05:16;0.88;;;0.88;;
17340;SDS011;8788;49.930;8.660;2023-05-10T15:07:43;1.33;;;0.82;;
17340;SDS011;8788;49.930;8.660;2023-05-10T15:10:10;1.88;;;0.90;;
17340;SDS011;8788;49.930;8.660;2023-05-10T15:12:38;2.38;;;0.80;;
17340;SDS011;8788;49.930;8.660;2023-05-10T15:15:05;1.65;;;0.70;;
17340;SDS011;8788;49.930;8.660;2023-05-10T15:17:33;5.35;;;1.00;;
17340;SDS011;8788;49.930;8.660;2023-05-10T15:20:02;1.02;;;0.43;;
17340;SDS011;8788;49.930;8.660;2023-05-10T15:22:29;1.95;;;1.02;;